sensor_id;sensor_type;location;lat;lon;timestamp;pressure;altitude;pressure_sealevel;temperature;humidity
18795;BME280;29610;49.022;12.114;2023-07-29T00:00:09;97315.69;;;19.24;100.00
18795;BME280;29610;49.022;12.114;2023-07-29T00:02:41;97331.75;;;19.18;100.00
18795;BME280;29610;49.022;12.114;2023-07-29T00:05:12;97333.00;;;19.24;100.00
18795;BME280;29610;49.022;12.114;2023-07-29T00:07:40;97332.28;;;19.34;100.00
18795;BME280;29610;49.022;12.114;2023-07-29T00:10:09;97340.19;;;19.43;100.00
18795;BME280;29610;49.022;12.114;2023-07-29T00:12:38;97337.44;;;19.43;100.00
18795;BME280;29610;49.022;12.114;2023-07-29T00:15:09;97339.84;;;19.51;100.00
18795;BME280;29610;49.022;12.114;2023-07-29T00:17:38;97347.31;;;19.51;100.00
18795;BME280;29610;49.022;12.114;2023-07-29T00:20:07;97353.22;;;19.56;100.00
18795;BME280;29610;49.022;12.114;2023-07-29T00:22:36;97344.22;;;19.59;100.00
18795;BME280;29610;49.022;12.114;2023-07-29T00:25:06;97348.91;;;19.55;100.00
18795;BME280;29610;49.022;12.114;2023-07-29T00:27:35;97356.81;;;19.60;100.00
18795;BME280;29610;49.022;12.114;2023-07-29T00:30:05;97353.69;;;19.69;100.00
18795;BME280;29610;49.022;12.114;2023-07-29T00:32:35;97363.50;;;19.66;100.00
18795;BME280;29610;49.022;12.114;2023-07-29T00:35:07;97359.59;;;19.67;100.00
18795;BME280;29610;49.022;12.114;2023-07-29T00:37:37;97354.06;;;19.71;100.00
18795;BME280;29610;49.022;12.114;2023-07-29T00:40:14;97348.16;;;19.65;100.00
18795;BME280;29610;49.022;12.114;2023-07-29T00:42:43;97343.81;;;19.64;100.00
18795;BME280;29610;49.022;12.114;2023-07-29T00:45:12;97341.88;;;19.68;100.00
18795;BME280;29610;49.022;12.114;2023-07-29T00:47:43;97347.38;;;19.65;100.00
18795;BME280;29610;49.022;12.114;2023-07-29T00:50:13;97342.66;;;19.65;100.00
18795;BME280;29610;49.022;12.114;2023-07-29T00:52:43;97343.03;;;19.60;100.00
18795;BME280;29610;49.022;12.114;2023-07-29T00:55:12;97343.81;;;19.61;100.00
18795;BME280;29610;49.022;12.114;2023-07-29T00:57:41;97337.03;;;19.41;100.00
18795;BME280;29610;49.022;12.114;2023-07-29T01:00:16;97335.09;;;19.52;100.00
18795;BME280;29610;49.022;12.114;2023-07-29T01:02:46;97340.25;;;19.50;100.00
18795;BME280;29610;49.022;12.114;2023-07-29T01:05:17;97348.88;;;19.48;100.00
18795;BME280;29610;49.022;12.114;2023-07-29T01:07:55;97346.88;;;19.38;100.00
18795;BME280;29610;49.022;12.114;2023-07-29T01:10:39;97341.78;;;19.40;100.00
18795;BME280;29610;49.022;12.114;2023-07-29T01:13:17;97337.06;;;19.48;100.00
18795;BME280;29610;49.022;12.114;2023-07-29T01:15:54;97331.91;;;19.39;100.00
18795;BME280;29610;49.022;12.114;2023-07-29T01:18:30;97332.28;;;19.34;100.00
18795;BME280;29610;49.022;12.114;2023-07-29T01:21:04;97328.25;;;19.21;100.00
18795;BME280;29610;49.022;12.114;2023-07-29T01:23:37;97322.34;;;19.19;100.00
18795;BME280;29610;49.022;12.114;2023-07-29T01:26:05;97319.13;;;19.07;100.00
18795;BME280;29610;49.022;12.114;2023-07-29T01:28:34;97331.28;;;19.02;100.00
18795;BME280;29610;49.022;12.114;2023-07-29T01:31:13;97343.88;;;19.00;100.00
18795;BME280;29610;49.022;12.114;2023-07-29T01:33:55;97345.84;;;19.03;100.00
18795;BME280;29610;49.022;12.114;2023-07-29T01:36:29;97346.28;;;19.12;100.00
18795;BME280;29610;49.022;12.114;2023-07-29T01:39:03;97331.75;;;19.11;100.00
18795;BME280;29610;49.022;12.114;2023-07-29T01:41:32;97334.47;;;19.08;100.00
18795;BME280;29610;49.022;12.114;2023-07-29T01:44:02;97328.63;;;19.16;100.00
18795;BME280;29610;49.022;12.114;2023-07-29T01:46:34;97316.44;;;19.21;100.00
18795;BME280;29610;49.022;12.114;2023-07-29T01:49:03;97313.75;;;19.31;100.00
18795;BME280;29610;49.022;12.114;2023-07-29T01:51:32;97307.41;;;19.24;100.00
18795;BME280;29610;49.022;12.114;2023-07-29T01:54:02;97315.19;;;19.08;100.00
18795;BME280;29610;49.022;12.114;2023-07-29T01:56:32;97313.66;;;19.14;100.00
18795;BME280;29610;49.022;12.114;2023-07-29T01:59:01;97319.56;;;19.16;100.00
18795;BME280;29610;49.022;12.114;2023-07-29T02:01:30;97326.22;;;19.08;100.00
18795;BME280;29610;49.022;12.114;2023-07-29T02:03:59;97327.41;;;19.07;100.00
18795;BME280;29610;49.022;12.114;2023-07-29T02:06:27;97326.97;;;19.05;100.00
18795;BME280;29610;49.022;12.114;2023-07-29T02:08:56;97331.28;;;19.02;100.00
18795;BME280;29610;49.022;12.114;2023-07-29T02:11:26;97332.88;;;19.03;100.00
18795;BME280;29610;49.022;12.114;2023-07-29T02:13:56;97328.94;;;19.04;100.00
18795;BME280;29610;49.022;12.114;2023-07-29T02:16:26;97325.03;;;19.05;100.00
18795;BME280;29610;49.022;12.114;2023-07-29T02:18:55;97327.78;;;19.05;100.00
18795;BME280;29610;49.022;12.114;2023-07-29T02:21:23;97330.53;;;19.05;100.00
18795;BME280;29610;49.022;12.114;2023-07-29T02:23:52;97325.78;;;19.06;100.00
18795;BME280;29610;49.022;12.114;2023-07-29T02:26:22;97330.53;;;19.05;100.00
18795;BME280;29610;49.022;12.114;2023-07-29T02:28:52;97336.09;;;19.16;100.00
18795;BME280;29610;49.022;12.114;2023-07-29T02:31:23;97331.34;;;19.09;100.00
18795;BME280;29610;49.022;12.114;2023-07-29T02:33:53;97327.78;;;19.05;100.00
18795;BME280;29610;49.022;12.114;2023-07-29T02:36:21;97332.44;;;18.98;100.00
18795;BME280;29610;49.022;12.114;2023-07-29T02:38:50;97333.19;;;18.91;100.00
18795;BME280;29610;49.022;12.114;2023-07-29T02:41:19;97338.78;;;19.09;100.00
18795;BME280;29610;49.022;12.114;2023-07-29T02:43:49;97335.66;;;19.07;100.00
18795;BME280;29610;49.022;12.114;2023-07-29T02:46:20;97336.75;;;18.95;100.00
18795;BME280;29610;49.022;12.114;2023-07-29T02:48:49;97336.69;;;18.84;100.00
18795;BME280;29610;49.022;12.114;2023-07-29T02:51:18;97331.06;;;18.70;100.00
18795;BME280;29610;49.022;12.114;2023-07-29T02:53:47;97329.13;;;18.71;100.00
18795;BME280;29610;49.022;12.114;2023-07-29T02:56:15;97327.88;;;18.61;100.00
18795;BME280;29610;49.022;12.114;2023-07-29T02:58:44;97324.28;;;18.54;100.00
18795;BME280;29610;49.022;12.114;2023-07-29T03:01:13;97328.91;;;18.46;100.00
18795;BME280;29610;49.022;12.114;2023-07-29T03:03:43;97320.25;;;18.41;100.00
18795;BME280;29610;49.022;12.114;2023-07-29T03:06:14;97318.16;;;18.31;100.00
18795;BME280;29610;49.022;12.114;2023-07-29T03:08:44;97320.38;;;18.15;100.00
18795;BME280;29610;49.022;12.114;2023-07-29T03:11:15;97319.00;;;17.95;100.00
18795;BME280;29610;49.022;12.114;2023-07-29T03:13:44;97312.75;;;17.98;100.00
18795;BME280;29610;49.022;12.114;2023-07-29T03:16:15;97303.66;;;17.94;100.00
18795;BME280;29610;49.022;12.114;2023-07-29T03:18:55;97305.69;;;18.00;100.00
18795;BME280;29610;49.022;12.114;2023-07-29T03:21:25;97303.31;;;17.99;100.00
18795;BME280;29610;49.022;12.114;2023-07-29T03:23:53;97308.06;;;17.98;100.00
18795;BME280;29610;49.022;12.114;2023-07-29T03:26:22;97310.44;;;18.00;100.00
18795;BME280;29610;49.022;12.114;2023-07-29T03:28:50;97308.00;;;17.95;100.00
18795;BME280;29610;49.022;12.114;2023-07-29T03:31:19;97306.03;;;17.92;100.00
18795;BME280;29610;49.022;12.114;2023-07-29T03:33:48;97303.66;;;17.90;100.00
18795;BME280;29610;49.022;12.114;2023-07-29T03:36:18;97298.53;;;17.92;100.00
18795;BME280;29610;49.022;12.114;2023-07-29T03:38:47;97309.53;;;17.92;100.00
18795;BME280;29610;49.022;12.114;2023-07-29T03:41:16;97308.06;;;17.98;100.00
18795;BME280;29610;49.022;12.114;2023-07-29T03:43:45;97306.06;;;17.99;100.00
18795;BME280;29610;49.022;12.114;2023-07-29T03:46:13;97306.50;;;18.01;100.00
18795;BME280;29610;49.022;12.114;2023-07-29T03:48:45;97310.09;;;18.08;100.00
18795;BME280;29610;49.022;12.114;2023-07-29T03:51:14;97311.69;;;18.09;100.00
18795;BME280;29610;49.022;12.114;2023-07-29T03:53:44;97314.03;;;18.07;100.00
18795;BME280;29610;49.022;12.114;2023-07-29T03:56:13;97304.22;;;18.10;100.00
18795;BME280;29610;49.022;12.114;2023-07-29T03:58:42;97310.94;;;18.12;100.00
18795;BME280;29610;49.022;12.114;2023-07-29T04:01:12;97315.72;;;18.19;100.00
18795;BME280;29610;49.022;12.114;2023-07-29T04:03:41;97305.91;;;18.21;100.00
18795;BME280;29610;49.022;12.114;2023-07-29T04:06:09;97318.84;;;18.17;100.00
18795;BME280;29610;49.022;12.114;2023-07-29T04:08:38;97312.19;;;18.22;100.00
18795;BME280;29610;49.022;12.114;2023-07-29T04:11:09;97312.16;;;18.18;100.00
18795;BME280;29610;49.022;12.114;2023-07-29T04:13:38;97306.69;;;18.22;100.00
18795;BME280;29610;49.022;12.114;2023-07-29T04:16:07;97302.00;;;18.26;100.00
18795;BME280;29610;49.022;12.114;2023-07-29T04:18:36;97311.09;;;18.30;100.00
18795;BME280;29610;49.022;12.114;2023-07-29T04:21:05;97314.22;;;18.32;100.00
18795;BME280;29610;49.022;12.114;2023-07-29T04:23:34;97318.16;;;18.31;100.00
18795;BME280;29610;49.022;12.114;2023-07-29T04:26:03;97319.84;;;18.39;100.00
18795;BME280;29610;49.022;12.114;2023-07-29T04:28:33;97319.50;;;18.47;100.00
18795;BME280;29610;49.022;12.114;2023-07-29T04:31:02;97317.28;;;18.63;100.00
18795;BME280;29610;49.022;12.114;2023-07-29T04:33:32;97314.97;;;18.72;100.00
18795;BME280;29610;49.022;12.114;2023-07-29T04:36:04;97313.84;;;18.80;100.00
18795;BME280;29610;49.022;12.114;2023-07-29T04:38:33;97320.25;;;18.95;100.00
18795;BME280;29610;49.022;12.114;2023-07-29T04:41:02;97315.25;;;19.18;100.00
18795;BME280;29610;49.022;12.114;2023-07-29T04:43:35;97313.41;;;19.36;100.00
18795;BME280;29610;49.022;12.114;2023-07-29T04:46:06;97309.09;;;19.46;100.00
18795;BME280;29610;49.022;12.114;2023-07-29T04:48:36;97312.31;;;19.62;100.00
18795;BME280;29610;49.022;12.114;2023-07-29T04:51:05;97318.63;;;19.69;100.00
18795;BME280;29610;49.022;12.114;2023-07-29T04:53:34;97306.47;;;19.84;100.00
18795;BME280;29610;49.022;12.114;2023-07-29T04:56:04;97308.06;;;19.99;100.00
18795;BME280;29610;49.022;12.114;2023-07-29T04:58:33;97308.91;;;20.14;100.00
18795;BME280;29610;49.022;12.114;2023-07-29T05:01:04;97310.88;;;20.13;100.00
18795;BME280;29610;49.022;12.114;2023-07-29T05:03:33;97310.50;;;20.40;100.00
18795;BME280;29610;49.022;12.114;2023-07-29T05:06:02;97304.56;;;20.80;100.00
18795;BME280;29610;49.022;12.114;2023-07-29T05:08:31;97303.75;;;21.04;100.00
18795;BME280;29610;49.022;12.114;2023-07-29T05:11:00;97287.53;;;21.16;100.00
18795;BME280;29610;49.022;12.114;2023-07-29T05:13:29;97289.13;;;21.14;100.00
18795;BME280;29610;49.022;12.114;2023-07-29T05:15:58;97288.69;;;21.22;100.00
18795;BME280;29610;49.022;12.114;2023-07-29T05:18:28;97281.59;;;21.25;100.00
18795;BME280;29610;49.022;12.114;2023-07-29T05:20:57;97282.75;;;21.34;100.00
18795;BME280;29610;49.022;12.114;2023-07-29T05:23:25;97278.78;;;21.35;100.00
18795;BME280;29610;49.022;12.114;2023-07-29T05:25:54;97284.22;;;21.56;100.00
18795;BME280;29610;49.022;12.114;2023-07-29T05:28:23;97283.75;;;21.72;100.00
18795;BME280;29610;49.022;12.114;2023-07-29T05:30:52;97294.78;;;21.83;100.00
18795;BME280;29610;49.022;12.114;2023-07-29T05:33:21;97283.94;;;22.06;100.00
18795;BME280;29610;49.022;12.114;2023-07-29T05:35:54;97292.00;;;22.41;100.00
18795;BME280;29610;49.022;12.114;2023-07-29T05:38:23;97286.84;;;22.43;100.00
18795;BME280;29610;49.022;12.114;2023-07-29T05:40:51;97275.31;;;22.51;100.00
18795;BME280;29610;49.022;12.114;2023-07-29T05:43:20;97281.00;;;22.34;100.00
18795;BME280;29610;49.022;12.114;2023-07-29T05:45:49;97273.16;;;22.22;100.00
18795;BME280;29610;49.022;12.114;2023-07-29T05:48:19;97275.63;;;22.09;100.00
18795;BME280;29610;49.022;12.114;2023-07-29T05:50:48;97278.00;;;22.11;100.00
18795;BME280;29610;49.022;12.114;2023-07-29T05:53:19;97270.66;;;22.38;100.00
18795;BME280;29610;49.022;12.114;2023-07-29T05:55:48;97273.44;;;22.38;100.00
18795;BME280;29610;49.022;12.114;2023-07-29T05:58:17;97269.69;;;22.62;100.00
18795;BME280;29610;49.022;12.114;2023-07-29T06:00:47;97262.78;;;22.80;100.00
18795;BME280;29610;49.022;12.114;2023-07-29T06:03:18;97269.38;;;22.53;100.00
18795;BME280;29610;49.022;12.114;2023-07-29T06:05:48;97273.03;;;22.83;100.00
18795;BME280;29610;49.022;12.114;2023-07-29T06:08:22;97282.34;;;23.03;100.00
18795;BME280;29610;49.022;12.114;2023-07-29T06:10:51;97280.19;;;23.18;100.00
18795;BME280;29610;49.022;12.114;2023-07-29T06:13:19;97280.97;;;23.18;100.00
18795;BME280;29610;49.022;12.114;2023-07-29T06:15:49;97274.16;;;23.27;100.00
18795;BME280;29610;49.022;12.114;2023-07-29T06:18:18;97271.44;;;23.23;100.00
18795;BME280;29610;49.022;12.114;2023-07-29T06:20:47;97272.19;;;23.27;100.00
18795;BME280;29610;49.022;12.114;2023-07-29T06:23:16;97268.97;;;23.32;100.00
18795;BME280;29610;49.022;12.114;2023-07-29T06:25:46;97261.53;;;23.26;100.00
18795;BME280;29610;49.022;12.114;2023-07-29T06:28:15;97261.44;;;23.33;100.00
18795;BME280;29610;49.022;12.114;2023-07-29T06:30:44;97269.34;;;23.34;100.00
18795;BME280;29610;49.022;12.114;2023-07-29T06:33:12;97272.13;;;23.34;100.00
18795;BME280;29610;49.022;12.114;2023-07-29T06:35:41;97282.34;;;23.41;100.00
18795;BME280;29610;49.022;12.114;2023-07-29T06:38:10;97286.19;;;23.13;100.00
18795;BME280;29610;49.022;12.114;2023-07-29T06:40:39;97289.00;;;23.77;100.00
18795;BME280;29610;49.022;12.114;2023-07-29T06:43:09;97263.78;;;23.94;100.00
18795;BME280;29610;49.022;12.114;2023-07-29T06:45:38;97268.19;;;24.18;100.00
18795;BME280;29610;49.022;12.114;2023-07-29T06:48:06;97267.19;;;24.32;100.00
18795;BME280;29610;49.022;12.114;2023-07-29T06:50:35;97273.59;;;24.52;100.00
18795;BME280;29610;49.022;12.114;2023-07-29T06:53:04;97287.13;;;24.50;100.00
18795;BME280;29610;49.022;12.114;2023-07-29T06:55:33;97276.84;;;24.47;100.00
18795;BME280;29610;49.022;12.114;2023-07-29T06:58:02;97275.41;;;24.39;100.00
18795;BME280;29610;49.022;12.114;2023-07-29T07:00:32;97281.00;;;24.35;100.00
18795;BME280;29610;49.022;12.114;2023-07-29T07:03:01;97285.28;;;24.40;100.00
18795;BME280;29610;49.022;12.114;2023-07-29T07:05:29;97286.78;;;24.21;100.00
18795;BME280;29610;49.022;12.114;2023-07-29T07:07:58;97291.22;;;24.42;100.00
18795;BME280;29610;49.022;12.114;2023-07-29T07:10:27;97287.03;;;24.57;100.00
18795;BME280;29610;49.022;12.114;2023-07-29T07:12:56;97299.66;;;24.35;100.00
18795;BME280;29610;49.022;12.114;2023-07-29T07:15:25;97291.38;;;24.05;100.00
18795;BME280;29610;49.022;12.114;2023-07-29T07:17:55;97300.00;;;23.84;100.00
18795;BME280;29610;49.022;12.114;2023-07-29T07:20:24;97295.47;;;23.67;100.00
18795;BME280;29610;49.022;12.114;2023-07-29T07:22:52;97286.91;;;23.54;100.00
18795;BME280;29610;49.022;12.114;2023-07-29T07:25:21;97276.19;;;23.26;100.00
18795;BME280;29610;49.022;12.114;2023-07-29T07:27:50;97272.09;;;23.00;100.00
18795;BME280;29610;49.022;12.114;2023-07-29T07:30:19;97275.00;;;22.86;100.00
18795;BME280;29610;49.022;12.114;2023-07-29T07:32:48;97265.28;;;22.68;100.00
18795;BME280;29610;49.022;12.114;2023-07-29T07:35:19;97272.16;;;22.49;100.00
18795;BME280;29610;49.022;12.114;2023-07-29T07:37:48;97262.25;;;22.52;100.00
18795;BME280;29610;49.022;12.114;2023-07-29T07:40:17;97264.28;;;22.44;100.00
18795;BME280;29610;49.022;12.114;2023-07-29T07:42:45;97270.22;;;22.87;100.00
18795;BME280;29610;49.022;12.114;2023-07-29T07:45:14;97275.00;;;23.20;100.00
18795;BME280;29610;49.022;12.114;2023-07-29T07:47:45;97270.97;;;23.28;100.00
18795;BME280;29610;49.022;12.114;2023-07-29T07:50:14;97276.66;;;23.51;100.00
18795;BME280;29610;49.022;12.114;2023-07-29T07:52:44;97278.13;;;23.59;100.00
18795;BME280;29610;49.022;12.114;2023-07-29T07:55:13;97281.34;;;23.84;100.00
18795;BME280;29610;49.022;12.114;2023-07-29T07:57:42;97288.63;;;24.05;100.00
18795;BME280;29610;49.022;12.114;2023-07-29T08:00:11;97288.19;;;24.33;100.00
18795;BME280;29610;49.022;12.114;2023-07-29T08:02:44;97288.09;;;24.63;100.00
18795;BME280;29610;49.022;12.114;2023-07-29T08:05:12;97295.25;;;24.61;100.00
18795;BME280;29610;49.022;12.114;2023-07-29T08:07:41;97289.94;;;24.46;100.00
18795;BME280;29610;49.022;12.114;2023-07-29T08:10:12;97305.09;;;24.19;100.00
18795;BME280;29610;49.022;12.114;2023-07-29T08:12:40;97319.06;;;23.82;100.00
18795;BME280;29610;49.022;12.114;2023-07-29T08:15:09;97333.75;;;23.49;100.00
18795;BME280;29610;49.022;12.114;2023-07-29T08:17:38;97374.19;;;23.05;100.00
18795;BME280;29610;49.022;12.114;2023-07-29T08:20:07;97411.97;;;22.82;100.00
18795;BME280;29610;49.022;12.114;2023-07-29T08:22:37;97409.41;;;22.47;100.00
18795;BME280;29610;49.022;12.114;2023-07-29T08:25:06;97420.44;;;21.85;100.00
18795;BME280;29610;49.022;12.114;2023-07-29T08:27:37;97381.44;;;21.41;100.00
18795;BME280;29610;49.022;12.114;2023-07-29T08:30:07;97366.88;;;21.19;100.00
18795;BME280;29610;49.022;12.114;2023-07-29T08:32:36;97347.16;;;21.03;100.00
18795;BME280;29610;49.022;12.114;2023-07-29T08:35:06;97327.47;;;20.84;100.00
18795;BME280;29610;49.022;12.114;2023-07-29T08:37:36;97325.88;;;20.76;100.00
18795;BME280;29610;49.022;12.114;2023-07-29T08:40:06;97308.53;;;20.75;100.00
18795;BME280;29610;49.022;12.114;2023-07-29T08:42:38;97307.31;;;20.83;100.00
18795;BME280;29610;49.022;12.114;2023-07-29T08:45:11;97301.81;;;20.80;100.00
18795;BME280;29610;49.022;12.114;2023-07-29T08:47:40;97298.63;;;20.78;100.00
18795;BME280;29610;49.022;12.114;2023-07-29T08:50:09;97299.03;;;20.80;100.00
18795;BME280;29610;49.022;12.114;2023-07-29T08:52:42;97312.47;;;20.74;100.00
18795;BME280;29610;49.022;12.114;2023-07-29T08:55:12;97314.44;;;20.74;100.00
18795;BME280;29610;49.022;12.114;2023-07-29T08:57:42;97294.31;;;20.70;100.00
18795;BME280;29610;49.022;12.114;2023-07-29T09:00:12;97280.91;;;20.72;100.00
18795;BME280;29610;49.022;12.114;2023-07-29T09:02:44;97304.56;;;20.80;100.00
18795;BME280;29610;49.022;12.114;2023-07-29T09:05:13;97288.75;;;20.87;100.00
18795;BME280;29610;49.022;12.114;2023-07-29T09:07:44;97280.09;;;20.99;100.00
18795;BME280;29610;49.022;12.114;2023-07-29T09:10:13;97288.34;;;21.13;100.00
18795;BME280;29610;49.022;12.114;2023-07-29T09:12:44;97290.63;;;21.39;100.00
18795;BME280;29610;49.022;12.114;2023-07-29T09:15:14;97298.78;;;21.67;100.00
18795;BME280;29610;49.022;12.114;2023-07-29T09:17:55;97289.56;;;21.95;100.00
18795;BME280;29610;49.022;12.114;2023-07-29T09:20:28;97282.16;;;22.36;100.00
18795;BME280;29610;49.022;12.114;2023-07-29T09:22:59;97287.72;;;22.80;100.00
18795;BME280;29610;49.022;12.114;2023-07-29T09:25:30;97279.00;;;23.19;100.00
18795;BME280;29610;49.022;12.114;2023-07-29T09:28:01;97280.72;;;23.43;100.00
18795;BME280;29610;49.022;12.114;2023-07-29T09:30:30;97278.19;;;23.56;100.00
18795;BME280;29610;49.022;12.114;2023-07-29T09:32:59;97275.63;;;23.68;100.00
18795;BME280;29610;49.022;12.114;2023-07-29T09:35:30;97272.09;;;23.68;100.00
18795;BME280;29610;49.022;12.114;2023-07-29T09:38:01;97280.00;;;23.69;100.00
18795;BME280;29610;49.022;12.114;2023-07-29T09:40:35;97278.81;;;23.67;100.00
18795;BME280;29610;49.022;12.114;2023-07-29T09:43:09;97278.34;;;23.72;100.00
18795;BME280;29610;49.022;12.114;2023-07-29T09:45:38;97283.66;;;23.89;100.00
18795;BME280;29610;49.022;12.114;2023-07-29T09:48:08;97282.00;;;23.95;100.00
18795;BME280;29610;49.022;12.114;2023-07-29T09:50:41;97278.97;;;24.13;100.00
18795;BME280;29610;49.022;12.114;2023-07-29T09:53:10;97275.34;;;24.16;100.00
18795;BME280;29610;49.022;12.114;2023-07-29T09:55:39;97282.41;;;24.47;100.00
18795;BME280;29610;49.022;12.114;2023-07-29T09:58:10;97280.19;;;24.85;100.00
18795;BME280;29610;49.022;12.114;2023-07-29T10:00:39;97285.06;;;25.43;100.00
18795;BME280;29610;49.022;12.114;2023-07-29T10:03:09;97281.75;;;25.67;100.00
18795;BME280;29610;49.022;12.114;2023-07-29T10:05:38;97292.75;;;25.55;100.00
18795;BME280;29610;49.022;12.114;2023-07-29T10:08:09;97307.81;;;24.95;100.00
18795;BME280;29610;49.022;12.114;2023-07-29T10:10:39;97318.56;;;24.20;100.00
18795;BME280;29610;49.022;12.114;2023-07-29T10:13:12;97329.59;;;23.64;100.00
18795;BME280;29610;49.022;12.114;2023-07-29T10:15:42;97319.34;;;23.20;100.00
18795;BME280;29610;49.022;12.114;2023-07-29T10:18:13;97334.44;;;22.24;100.00
18795;BME280;29610;49.022;12.114;2023-07-29T10:20:43;97313.13;;;22.17;100.00
18795;BME280;29610;49.022;12.114;2023-07-29T10:23:17;97303.03;;;21.86;100.00
18795;BME280;29610;49.022;12.114;2023-07-29T10:25:54;97296.78;;;21.71;100.00
18795;BME280;29610;49.022;12.114;2023-07-29T10:28:29;97303.59;;;21.53;100.00
18795;BME280;29610;49.022;12.114;2023-07-29T10:30:59;97307.56;;;21.52;100.00
18795;BME280;29610;49.022;12.114;2023-07-29T10:33:30;97308.38;;;21.38;100.00
18795;BME280;29610;49.022;12.114;2023-07-29T10:36:00;97316.66;;;21.49;100.00
18795;BME280;29610;49.022;12.114;2023-07-29T10:38:30;97317.38;;;21.60;100.00
18795;BME280;29610;49.022;12.114;2023-07-29T10:40:59;97309.34;;;21.90;100.00
18795;BME280;29610;49.022;12.114;2023-07-29T10:43:35;97312.56;;;22.43;100.00
18795;BME280;29610;49.022;12.114;2023-07-29T10:46:16;97317.94;;;23.08;100.00
18795;BME280;29610;49.022;12.114;2023-07-29T10:48:53;97321.53;;;23.73;100.00
18795;BME280;29610;49.022;12.114;2023-07-29T10:51:28;97298.63;;;24.25;100.00
18795;BME280;29610;49.022;12.114;2023-07-29T10:54:08;97267.81;;;24.66;100.00
18795;BME280;29610;49.022;12.114;2023-07-29T10:56:42;97271.91;;;25.24;100.00
18795;BME280;29610;49.022;12.114;2023-07-29T10:59:33;97276.84;;;25.55;100.00
18795;BME280;29610;49.022;12.114;2023-07-29T11:02:02;97278.97;;;26.23;100.00
18795;BME280;29610;49.022;12.114;2023-07-29T11:04:47;97272.88;;;26.44;100.00
18795;BME280;29610;49.022;12.114;2023-07-29T11:07:24;97274.63;;;27.14;100.00
18795;BME280;29610;49.022;12.114;2023-07-29T11:10:00;97269.59;;;27.67;100.00
18795;BME280;29610;49.022;12.114;2023-07-29T11:12:43;97272.25;;;28.36;100.00
18795;BME280;29610;49.022;12.114;2023-07-29T11:15:21;97277.03;;;27.98;100.00
18795;BME280;29610;49.022;12.114;2023-07-29T11:17:52;97263.09;;;27.98;100.00
18795;BME280;29610;49.022;12.114;2023-07-29T11:20:28;97268.16;;;27.75;100.00
18795;BME280;29610;49.022;12.114;2023-07-29T11:23:00;97266.97;;;28.13;100.00
18795;BME280;29610;49.022;12.114;2023-07-29T11:25:30;97266.28;;;28.47;100.00
18795;BME280;29610;49.022;12.114;2023-07-29T11:28:00;97262.03;;;28.67;100.00
18795;BME280;29610;49.022;12.114;2023-07-29T11:30:38;97273.34;;;28.26;100.00
18795;BME280;29610;49.022;12.114;2023-07-29T11:33:07;97263.41;;;28.25;100.00
18795;BME280;29610;49.022;12.114;2023-07-29T11:35:36;97257.03;;;28.50;100.00
18795;BME280;29610;49.022;12.114;2023-07-29T11:38:04;97256.66;;;29.41;100.00
18795;BME280;29610;49.022;12.114;2023-07-29T11:40:33;97254.97;;;29.44;100.00
18795;BME280;29610;49.022;12.114;2023-07-29T11:43:02;97264.28;;;29.19;100.00
18795;BME280;29610;49.022;12.114;2023-07-29T11:45:31;97248.50;;;29.13;100.00
18795;BME280;29610;49.022;12.114;2023-07-29T11:48:18;97246.88;;;28.06;100.00
18795;BME280;29610;49.022;12.114;2023-07-29T11:50:47;97257.50;;;28.48;100.00
18795;BME280;29610;49.022;12.114;2023-07-29T11:53:16;97257.00;;;28.75;100.00
18795;BME280;29610;49.022;12.114;2023-07-29T11:55:44;97256.34;;;29.05;100.00
18795;BME280;29610;49.022;12.114;2023-07-29T11:58:18;97253.28;;;29.25;100.00
18795;BME280;29610;49.022;12.114;2023-07-29T12:00:47;97252.56;;;29.12;100.00
18795;BME280;29610;49.022;12.114;2023-07-29T12:03:18;97249.09;;;28.48;100.00
18795;BME280;29610;49.022;12.114;2023-07-29T12:05:48;97249.97;;;28.45;100.00
18795;BME280;29610;49.022;12.114;2023-07-29T12:08:17;97245.44;;;28.14;100.00
18795;BME280;29610;49.022;12.114;2023-07-29T12:10:47;97222.50;;;28.31;100.00
18795;BME280;29610;49.022;12.114;2023-07-29T12:13:16;97221.28;;;28.20;100.00
18795;BME280;29610;49.022;12.114;2023-07-29T12:15:44;97216.38;;;28.11;100.00
18795;BME280;29610;49.022;12.114;2023-07-29T12:18:13;97229.00;;;28.03;100.00
18795;BME280;29610;49.022;12.114;2023-07-29T12:20:44;97223.97;;;27.98;100.00
18795;BME280;29610;49.022;12.114;2023-07-29T12:23:13;97224.63;;;28.15;100.00
18795;BME280;29610;49.022;12.114;2023-07-29T12:25:46;97214.13;;;28.31;100.00
18795;BME280;29610;49.022;12.114;2023-07-29T12:28:15;97215.34;;;28.55;100.00
18795;BME280;29610;49.022;12.114;2023-07-29T12:30:44;97220.41;;;28.48;100.00
18795;BME280;29610;49.022;12.114;2023-07-29T12:33:30;97221.72;;;29.24;100.00
18795;BME280;29610;49.022;12.114;2023-07-29T12:36:00;97226.31;;;29.40;100.00
18795;BME280;29610;49.022;12.114;2023-07-29T12:38:29;97213.19;;;30.11;100.00
18795;BME280;29610;49.022;12.114;2023-07-29T12:40:58;97219.81;;;31.19;100.00
18795;BME280;29610;49.022;12.114;2023-07-29T12:43:28;97213.69;;;31.66;100.00
18795;BME280;29610;49.022;12.114;2023-07-29T12:45:57;97197.34;;;31.56;100.00
18795;BME280;29610;49.022;12.114;2023-07-29T12:48:26;97193.78;;;30.83;100.00
18795;BME280;29610;49.022;12.114;2023-07-29T12:50:54;97190.56;;;29.96;100.00
18795;BME280;29610;49.022;12.114;2023-07-29T12:53:24;97196.25;;;30.14;100.00
18795;BME280;29610;49.022;12.114;2023-07-29T12:55:53;97196.44;;;30.29;100.00